sensor_id;sensor_type;location;lat;lon;timestamp;pressure;altitude;pressure_sealevel;temperature;humidity
32761;BME280;19126;47.472;7.850;2023-05-03T00:02:19;97238.69;;;7.27;83.02
32761;BME280;19126;47.472;7.850;2023-05-03T00:04:47;97232.78;;;7.15;83.70
32761;BME280;19126;47.472;7.850;2023-05-03T00:07:16;97231.13;;;7.14;84.09
32761;BME280;19126;47.472;7.850;2023-05-03T00:09:44;97229.06;;;7.08;84.41
32761;BME280;19126;47.472;7.850;2023-05-03T00:12:14;97231.94;;;7.04;83.75
32761;BME280;19126;47.472;7.850;2023-05-03T00:14:41;97230.44;;;7.02;83.86
32761;BME280;19126;47.472;7.850;2023-05-03T00:17:10;97232.88;;;6.94;84.06
32761;BME280;19126;47.472;7.850;2023-05-03T00:19:37;97226.44;;;6.98;84.23
32761;BME280;19126;47.472;7.850;2023-05-03T00:22:05;97230.28;;;6.84;84.17
32761;BME280;19126;47.472;7.850;2023-05-03T00:24:34;97232.88;;;6.74;83.25
32761;BME280;19126;47.472;7.850;2023-05-03T00:27:03;97223.66;;;6.70;82.61
32761;BME280;19126;47.472;7.850;2023-05-03T00:29:31;97222.00;;;6.69;81.85
32761;BME280;19126;47.472;7.850;2023-05-03T00:31:59;97220.78;;;6.63;81.83
32761;BME280;19126;47.472;7.850;2023-05-03T00:34:28;97225.41;;;6.59;80.05
32761;BME280;19126;47.472;7.850;2023-05-03T00:36:55;97235.28;;;6.56;79.94
32761;BME280;19126;47.472;7.850;2023-05-03T00:39:23;97220.59;;;6.55;79.58
32761;BME280;19126;47.472;7.850;2023-05-03T00:41:56;97225.94;;;6.53;78.08
32761;BME280;19126;47.472;7.850;2023-05-03T00:44:23;97225.53;;;6.58;76.75
32761;BME280;19126;47.472;7.850;2023-05-03T00:46:51;97230.91;;;6.56;76.10
32761;BME280;19126;47.472;7.850;2023-05-03T00:49:18;97217.53;;;6.50;75.04
32761;BME280;19126;47.472;7.850;2023-05-03T00:51:47;97222.75;;;6.50;75.04
32761;BME280;19126;47.472;7.850;2023-05-03T00:54:15;97216.31;;;6.44;74.74
32761;BME280;19126;47.472;7.850;2023-05-03T00:56:43;97216.00;;;6.37;75.22
32761;BME280;19126;47.472;7.850;2023-05-03T00:59:11;97222.44;;;6.33;75.79
32761;BME280;19126;47.472;7.850;2023-05-03T01:04:14;97223.81;;;6.27;75.87
32761;BME280;19126;47.472;7.850;2023-05-03T01:06:51;97220.63;;;6.24;76.05
32761;BME280;19126;47.472;7.850;2023-05-03T01:09:33;97220.34;;;6.17;77.15
32761;BME280;19126;47.472;7.850;2023-05-03T01:12:18;97220.19;;;6.09;77.92
32761;BME280;19126;47.472;7.850;2023-05-03T01:15:06;97217.94;;;6.04;79.27
32761;BME280;19126;47.472;7.850;2023-05-03T01:17:38;97212.19;;;6.00;78.65
32761;BME280;19126;47.472;7.850;2023-05-03T01:20:08;97213.09;;;5.99;77.89
32761;BME280;19126;47.472;7.850;2023-05-03T01:22:49;97208.69;;;6.00;77.00
32761;BME280;19126;47.472;7.850;2023-05-03T01:25:22;97206.97;;;6.00;76.38
32761;BME280;19126;47.472;7.850;2023-05-03T01:27:50;97208.41;;;5.93;76.43
32761;BME280;19126;47.472;7.850;2023-05-03T01:30:17;97209.03;;;5.85;75.95
32761;BME280;19126;47.472;7.850;2023-05-03T01:32:54;97196.97;;;5.84;75.73
32761;BME280;19126;47.472;7.850;2023-05-03T01:35:29;97207.91;;;5.78;75.67
32761;BME280;19126;47.472;7.850;2023-05-03T01:38:02;97203.28;;;5.82;75.36
32761;BME280;19126;47.472;7.850;2023-05-03T01:40:37;97206.66;;;5.72;75.93
32761;BME280;19126;47.472;7.850;2023-05-03T01:43:05;97205.97;;;5.70;75.84
32761;BME280;19126;47.472;7.850;2023-05-03T01:45:32;97205.28;;;5.68;75.50
32761;BME280;19126;47.472;7.850;2023-05-03T01:48:00;97206.53;;;5.74;75.17
32761;BME280;19126;47.472;7.850;2023-05-03T01:50:28;97202.41;;;5.71;74.64
32761;BME280;19126;47.472;7.850;2023-05-03T05:31:37;97244.59;;;6.49;18.76
32761;BME280;19126;47.472;7.850;2023-05-03T05:34:05;97246.84;;;6.53;18.46
32761;BME280;19126;47.472;7.850;2023-05-03T05:36:32;97247.38;;;6.57;17.72
32761;BME280;19126;47.472;7.850;2023-05-03T05:38:59;97250.13;;;6.55;19.02
32761;BME280;19126;47.472;7.850;2023-05-03T05:41:27;97252.06;;;6.53;19.27
32761;BME280;19126;47.472;7.850;2023-05-03T05:43:54;97255.19;;;6.47;19.88
32761;BME280;19126;47.472;7.850;2023-05-03T05:46:22;97250.50;;;6.41;20.28
32761;BME280;19126;47.472;7.850;2023-05-03T05:48:50;97255.47;;;6.44;20.29
32761;BME280;19126;47.472;7.850;2023-05-03T05:51:18;97250.78;;;6.48;20.33
32761;BME280;19126;47.472;7.850;2023-05-03T05:53:45;97253.88;;;6.63;19.64
32761;BME280;19126;47.472;7.850;2023-05-03T05:56:13;97255.91;;;6.59;20.10
32761;BME280;19126;47.472;7.850;2023-05-03T05:58:40;97258.69;;;6.67;20.74
32761;BME280;19126;47.472;7.850;2023-05-03T06:01:08;97255.72;;;6.82;20.15
32761;BME280;19126;47.472;7.850;2023-05-03T06:03:35;97255.03;;;6.89;20.98
32761;BME280;19126;47.472;7.850;2023-05-03T06:06:04;97258.34;;;7.01;21.26
32761;BME280;19126;47.472;7.850;2023-05-03T06:08:32;97250.66;;;7.10;20.66
32761;BME280;19126;47.472;7.850;2023-05-03T06:10:59;97243.66;;;7.20;20.01
32761;BME280;19126;47.472;7.850;2023-05-03T06:13:27;97250.22;;;7.34;20.42
32761;BME280;19126;47.472;7.850;2023-05-03T06:15:54;97242.53;;;7.42;20.26
32761;BME280;19126;47.472;7.850;2023-05-03T06:18:21;97234.69;;;7.52;21.17
32761;BME280;19126;47.472;7.850;2023-05-03T06:20:49;97243.47;;;7.61;21.46
32761;BME280;19126;47.472;7.850;2023-05-03T06:23:18;97243.31;;;7.72;21.66
32761;BME280;19126;47.472;7.850;2023-05-03T06:25:45;97237.66;;;7.77;22.57
32761;BME280;19126;47.472;7.850;2023-05-03T06:28:13;97232.28;;;7.78;23.61
32761;BME280;19126;47.472;7.850;2023-05-03T06:30:47;97228.97;;;7.86;25.22
32761;BME280;19126;47.472;7.850;2023-05-03T06:33:14;97234.31;;;7.95;28.68
32761;BME280;19126;47.472;7.850;2023-05-03T06:35:42;97229.38;;;8.29;27.26
32761;BME280;19126;47.472;7.850;2023-05-03T06:38:12;97228.84;;;8.82;26.31
32761;BME280;19126;47.472;7.850;2023-05-03T06:40:41;97231.19;;;9.21;34.19
32761;BME280;19126;47.472;7.850;2023-05-03T06:43:08;97234.25;;;9.52;42.22
32761;BME280;19126;47.472;7.850;2023-05-03T06:45:36;97228.06;;;9.62;53.19
32761;BME280;19126;47.472;7.850;2023-05-03T06:48:04;97217.69;;;9.78;66.73
32761;BME280;19126;47.472;7.850;2023-05-03T06:50:32;97211.53;;;9.88;77.76
32761;BME280;19126;47.472;7.850;2023-05-03T06:52:59;97217.06;;;10.11;86.93
32761;BME280;19126;47.472;7.850;2023-05-03T06:55:27;97215.38;;;10.36;94.82
32761;BME280;19126;47.472;7.850;2023-05-03T06:57:55;97213.31;;;11.08;95.03
32761;BME280;19126;47.472;7.850;2023-05-03T07:00:23;97215.44;;;11.46;100.00
32761;BME280;19126;47.472;7.850;2023-05-03T07:33:58;97185.94;;;14.85;98.32
32761;BME280;19126;47.472;7.850;2023-05-03T07:36:26;97174.22;;;15.16;96.12
32761;BME280;19126;47.472;7.850;2023-05-03T07:44:11;97162.66;;;15.74;87.15
32761;BME280;19126;47.472;7.850;2023-05-03T07:46:39;97160.63;;;15.76;86.01
32761;BME280;19126;47.472;7.850;2023-05-03T07:49:08;97162.66;;;16.02;85.32
32761;BME280;19126;47.472;7.850;2023-05-03T07:54:11;97153.38;;;16.20;83.67
32761;BME280;19126;47.472;7.850;2023-05-03T07:56:39;97160.81;;;16.45;86.39
32761;BME280;19126;47.472;7.850;2023-05-03T07:59:06;97154.97;;;16.63;85.24
32761;BME280;19126;47.472;7.850;2023-05-03T08:01:33;97157.94;;;17.02;86.17
32761;BME280;19126;47.472;7.850;2023-05-03T08:04:01;97153.03;;;17.05;82.00
32761;BME280;19126;47.472;7.850;2023-05-03T08:06:30;97157.75;;;17.17;79.30
32761;BME280;19126;47.472;7.850;2023-05-03T09:32:07;97150.47;;;18.77;66.72
32761;BME280;19126;47.472;7.850;2023-05-03T09:34:35;97155.22;;;19.07;65.15
32761;BME280;19126;47.472;7.850;2023-05-03T09:37:03;97161.91;;;19.42;65.10
32761;BME280;19126;47.472;7.850;2023-05-03T09:39:31;97149.56;;;19.47;63.90
32761;BME280;19126;47.472;7.850;2023-05-03T09:42:10;97147.69;;;19.73;63.09
32761;BME280;19126;47.472;7.850;2023-05-03T09:44:42;97148.66;;;20.04;64.59
32761;BME280;19126;47.472;7.850;2023-05-03T09:47:11;97153.84;;;19.99;59.95
32761;BME280;19126;47.472;7.850;2023-05-03T09:49:43;97157.34;;;20.18;65.10
32761;BME280;19126;47.472;7.850;2023-05-03T09:52:10;97156.63;;;20.42;60.41
32761;BME280;19126;47.472;7.850;2023-05-03T09:54:38;97166.94;;;20.38;57.86
32761;BME280;19126;47.472;7.850;2023-05-03T09:57:07;97173.09;;;20.39;59.25
32761;BME280;19126;47.472;7.850;2023-05-03T09:59:36;97158.72;;;20.40;59.00
32761;BME280;19126;47.472;7.850;2023-05-03T10:02:06;97161.22;;;20.53;59.44
32761;BME280;19126;47.472;7.850;2023-05-03T10:04:42;97182.72;;;20.40;55.95
32761;BME280;19126;47.472;7.850;2023-05-03T10:07:13;97165.25;;;20.25;59.55
32761;BME280;19126;47.472;7.850;2023-05-03T10:09:43;97160.44;;;20.34;56.97
32761;BME280;19126;47.472;7.850;2023-05-03T10:12:12;97158.84;;;20.45;58.38
32761;BME280;19126;47.472;7.850;2023-05-03T10:14:45;97156.88;;;20.22;55.12
32761;BME280;19126;47.472;7.850;2023-05-03T10:17:17;97167.25;;;19.93;54.28
32761;BME280;19126;47.472;7.850;2023-05-03T10:19:51;97169.50;;;19.89;56.76
32761;BME280;19126;47.472;7.850;2023-05-03T10:22:20;97167.47;;;19.84;55.30
32761;BME280;19126;47.472;7.850;2023-05-03T10:25:08;97147.47;;;20.19;60.31
32761;BME280;19126;47.472;7.850;2023-05-03T10:27:50;97147.91;;;20.16;55.47
32761;BME280;19126;47.472;7.850;2023-05-03T10:30:29;97151.56;;;20.52;56.44
32761;BME280;19126;47.472;7.850;2023-05-03T10:32:59;97149.53;;;20.35;53.15
32761;BME280;19126;47.472;7.850;2023-05-03T10:35:51;97142.94;;;20.19;54.13
32761;BME280;19126;47.472;7.850;2023-05-03T10:38:21;97154.56;;;20.44;58.21
32761;BME280;19126;47.472;7.850;2023-05-03T10:40:50;97151.25;;;20.11;53.55
32761;BME280;19126;47.472;7.850;2023-05-03T10:43:43;97151.88;;;20.44;56.18
32761;BME280;19126;47.472;7.850;2023-05-03T10:46:30;97138.59;;;20.56;53.37
32761;BME280;19126;47.472;7.850;2023-05-03T10:49:22;97133.44;;;20.73;53.82
32761;BME280;19126;47.472;7.850;2023-05-03T10:51:52;97139.16;;;20.76;52.52
32761;BME280;19126;47.472;7.850;2023-05-03T10:54:20;97137.53;;;20.75;51.28
32761;BME280;19126;47.472;7.850;2023-05-03T10:56:54;97133.22;;;21.05;53.91
32761;BME280;19126;47.472;7.850;2023-05-03T10:59:23;97130.31;;;21.06;52.32
32761;BME280;19126;47.472;7.850;2023-05-03T11:01:53;97115.56;;;21.04;53.08
32761;BME280;19126;47.472;7.850;2023-05-03T11:04:38;97114.22;;;21.25;53.04
32761;BME280;19126;47.472;7.850;2023-05-03T11:07:09;97124.31;;;21.23;50.50
32761;BME280;19126;47.472;7.850;2023-05-03T11:09:36;97118.16;;;21.22;51.34
32761;BME280;19126;47.472;7.850;2023-05-03T11:12:06;97128.00;;;21.10;50.61
32761;BME280;19126;47.472;7.850;2023-05-03T11:14:34;97115.63;;;21.28;51.57
32761;BME280;19126;47.472;7.850;2023-05-03T11:17:01;97115.88;;;21.38;52.17
32761;BME280;19126;47.472;7.850;2023-05-03T11:19:28;97129.09;;;21.33;50.11
32761;BME280;19126;47.472;7.850;2023-05-03T11:21:56;97106.19;;;21.49;50.83
32761;BME280;19126;47.472;7.850;2023-05-03T11:24:26;97104.56;;;21.24;48.32
32761;BME280;19126;47.472;7.850;2023-05-03T11:26:54;97110.00;;;21.17;48.89
32761;BME280;19126;47.472;7.850;2023-05-03T11:29:24;97105.16;;;21.38;49.56
32761;BME280;19126;47.472;7.850;2023-05-03T11:31:54;97095.88;;;21.64;51.12
32761;BME280;19126;47.472;7.850;2023-05-03T11:34:24;97098.41;;;21.59;51.46
32761;BME280;19126;47.472;7.850;2023-05-03T11:36:52;97098.44;;;21.71;49.92
32761;BME280;19126;47.472;7.850;2023-05-03T11:39:19;97095.28;;;21.86;50.92
32761;BME280;19126;47.472;7.850;2023-05-03T11:42:06;97089.69;;;21.88;51.08
32761;BME280;19126;47.472;7.850;2023-05-03T11:44:35;97084.56;;;21.98;49.46
32761;BME280;19126;47.472;7.850;2023-05-03T11:47:03;97085.66;;;22.14;51.49
32761;BME280;19126;47.472;7.850;2023-05-03T11:49:31;97100.47;;;22.05;46.15
32761;BME280;19126;47.472;7.850;2023-05-03T11:51:59;97100.25;;;22.06;49.96
32761;BME280;19126;47.472;7.850;2023-05-03T11:54:26;97100.72;;;21.91;48.91
32761;BME280;19126;47.472;7.850;2023-05-03T11:59:37;97085.97;;;21.89;46.08
32761;BME280;19126;47.472;7.850;2023-05-03T12:02:06;97095.75;;;21.95;45.63
32761;BME280;19126;47.472;7.850;2023-05-03T12:04:35;97097.38;;;21.96;44.29
32761;BME280;19126;47.472;7.850;2023-05-03T12:07:05;97099.25;;;21.84;46.79
32761;BME280;19126;47.472;7.850;2023-05-03T12:09:33;97084.25;;;21.59;44.59
32761;BME280;19126;47.472;7.850;2023-05-03T12:12:02;97097.59;;;21.47;44.93
32761;BME280;19126;47.472;7.850;2023-05-03T12:14:56;97087.63;;;21.42;46.32
32761;BME280;19126;47.472;7.850;2023-05-03T12:17:36;97093.78;;;21.55;47.65
32761;BME280;19126;47.472;7.850;2023-05-03T12:20:17;97062.75;;;21.77;47.13
32761;BME280;19126;47.472;7.850;2023-05-03T12:22:48;97071.72;;;22.12;47.55
32761;BME280;19126;47.472;7.850;2023-05-03T12:25:16;97073.22;;;22.20;45.51
32761;BME280;19126;47.472;7.850;2023-05-03T12:27:44;97083.53;;;22.28;47.15
32761;BME280;19126;47.472;7.850;2023-05-03T12:30:21;97089.88;;;22.10;44.20
32761;BME280;19126;47.472;7.850;2023-05-03T12:32:49;97073.63;;;22.00;44.56
32761;BME280;19126;47.472;7.850;2023-05-03T12:35:17;97066.28;;;22.07;44.89
32761;BME280;19126;47.472;7.850;2023-05-03T12:37:46;97081.81;;;21.69;41.84
32761;BME280;19126;47.472;7.850;2023-05-03T12:40:15;97067.03;;;21.43;43.38
32761;BME280;19126;47.472;7.850;2023-05-03T12:42:43;97072.59;;;21.17;43.49
32761;BME280;19126;47.472;7.850;2023-05-03T12:45:11;97075.50;;;21.16;42.29
32761;BME280;19126;47.472;7.850;2023-05-03T12:47:40;97062.22;;;20.85;42.48
32761;BME280;19126;47.472;7.850;2023-05-03T12:50:08;97059.66;;;20.78;42.24
32761;BME280;19126;47.472;7.850;2023-05-03T12:52:36;97058.28;;;20.45;43.72
32761;BME280;19126;47.472;7.850;2023-05-03T12:55:05;97061.28;;;20.49;45.48
32761;BME280;19126;47.472;7.850;2023-05-03T12:57:33;97054.47;;;20.53;46.38
32761;BME280;19126;47.472;7.850;2023-05-03T13:00:00;97060.31;;;20.74;45.12
32761;BME280;19126;47.472;7.850;2023-05-03T13:02:28;97048.66;;;20.87;46.62
32761;BME280;19126;47.472;7.850;2023-05-03T13:04:57;97032.75;;;21.04;45.45
32761;BME280;19126;47.472;7.850;2023-05-03T13:07:26;97051.66;;;20.90;45.41
32761;BME280;19126;47.472;7.850;2023-05-03T13:09:54;97047.72;;;21.05;46.73
32761;BME280;19126;47.472;7.850;2023-05-03T13:12:22;97040.88;;;20.85;42.70
32761;BME280;19126;47.472;7.850;2023-05-03T13:14:51;97035.19;;;20.51;44.01
32761;BME280;19126;47.472;7.850;2023-05-03T13:17:20;97038.38;;;20.29;42.77
32761;BME280;19126;47.472;7.850;2023-05-03T13:19:48;97022.13;;;20.00;43.54
32761;BME280;19126;47.472;7.850;2023-05-03T13:22:17;97022.03;;;20.38;47.05
32761;BME280;19126;47.472;7.850;2023-05-03T13:24:47;97027.19;;;20.51;47.14
32761;BME280;19126;47.472;7.850;2023-05-03T13:27:15;97020.16;;;20.69;49.87
32761;BME280;19126;47.472;7.850;2023-05-03T13:29:43;97022.81;;;20.69;49.61
32761;BME280;19126;47.472;7.850;2023-05-03T13:32:10;97006.34;;;20.72;48.95
32761;BME280;19126;47.472;7.850;2023-05-03T13:34:38;97008.81;;;20.85;48.61
32761;BME280;19126;47.472;7.850;2023-05-03T13:37:05;97009.53;;;20.92;47.85
32761;BME280;19126;47.472;7.850;2023-05-03T13:39:37;97017.75;;;20.79;45.08
32761;BME280;19126;47.472;7.850;2023-05-03T13:42:05;97014.09;;;20.61;44.91
32761;BME280;19126;47.472;7.850;2023-05-03T13:44:32;97002.09;;;20.83;47.16
32761;BME280;19126;47.472;7.850;2023-05-03T13:47:00;96993.44;;;20.69;45.75
32761;BME280;19126;47.472;7.850;2023-05-03T13:49:27;96996.13;;;20.69;46.42
32761;BME280;19126;47.472;7.850;2023-05-03T13:51:54;96996.50;;;20.84;46.48
32761;BME280;19126;47.472;7.850;2023-05-03T13:54:22;96982.25;;;20.78;45.24
32761;BME280;19126;47.472;7.850;2023-05-03T13:56:50;96986.88;;;20.83;48.61
32761;BME280;19126;47.472;7.850;2023-05-03T13:59:18;96985.72;;;20.79;46.67
32761;BME280;19126;47.472;7.850;2023-05-03T14:01:45;96976.09;;;20.90;47.99
32761;BME280;19126;47.472;7.850;2023-05-03T14:04:13;96977.47;;;20.92;47.70
32761;BME280;19126;47.472;7.850;2023-05-03T14:06:40;96974.34;;;21.19;48.29
32761;BME280;19126;47.472;7.850;2023-05-03T14:09:08;96980.84;;;21.35;47.51
32761;BME280;19126;47.472;7.850;2023-05-03T14:11:35;96969.69;;;21.38;48.41
32761;BME280;19126;47.472;7.850;2023-05-03T14:14:05;96975.53;;;21.23;45.04
32761;BME280;19126;47.472;7.850;2023-05-03T14:16:32;96959.81;;;21.27;48.16
32761;BME280;19126;47.472;7.850;2023-05-03T14:18:59;96967.00;;;21.50;47.20
32761;BME280;19126;47.472;7.850;2023-05-03T14:21:27;96961.03;;;21.60;48.05
32761;BME280;19126;47.472;7.850;2023-05-03T14:23:56;96954.44;;;21.63;46.21
32761;BME280;19126;47.472;7.850;2023-05-03T14:26:24;96960.97;;;21.43;45.84
32761;BME280;19126;47.472;7.850;2023-05-03T14:28:54;96959.59;;;21.17;44.03
32761;BME280;19126;47.472;7.850;2023-05-03T14:31:22;96966.78;;;21.16;46.14
32761;BME280;19126;47.472;7.850;2023-05-03T14:33:50;96964.59;;;20.89;48.24
32761;BME280;19126;47.472;7.850;2023-05-03T14:36:17;96961.34;;;21.11;49.76
32761;BME280;19126;47.472;7.850;2023-05-03T14:38:44;96961.19;;;21.42;50.72
32761;BME280;19126;47.472;7.850;2023-05-03T14:41:12;96951.44;;;21.35;48.47
32761;BME280;19126;47.472;7.850;2023-05-03T14:43:39;96955.94;;;21.47;46.98
32761;BME280;19126;47.472;7.850;2023-05-03T14:46:06;96948.41;;;21.44;47.34
32761;BME280;19126;47.472;7.850;2023-05-03T14:48:36;96956.97;;;21.58;49.74
32761;BME280;19126;47.472;7.850;2023-05-03T14:51:04;96944.47;;;21.46;48.27
32761;BME280;19126;47.472;7.850;2023-05-03T14:53:32;96957.84;;;21.34;48.40
32761;BME280;19126;47.472;7.850;2023-05-03T14:56:00;96947.28;;;21.04;46.77
32761;BME280;19126;47.472;7.850;2023-05-03T14:58:27;96946.25;;;20.81;45.34
32761;BME280;19126;47.472;7.850;2023-05-03T15:00:55;96958.66;;;20.87;45.14
32761;BME280;19126;47.472;7.850;2023-05-03T15:03:22;96947.41;;;20.85;46.47
32761;BME280;19126;47.472;7.850;2023-05-03T15:05:52;96954.50;;;20.79;47.03
32761;BME280;19126;47.472;7.850;2023-05-03T15:08:19;96948.88;;;20.57;48.59
32761;BME280;19126;47.472;7.850;2023-05-03T15:10:47;96950.97;;;20.55;48.46
32761;BME280;19126;47.472;7.850;2023-05-03T15:13:14;96945.06;;;20.65;51.97
32761;BME280;19126;47.472;7.850;2023-05-03T15:15:43;96943.88;;;20.49;50.28
32761;BME280;19126;47.472;7.850;2023-05-03T15:18:10;96944.00;;;20.42;49.69
32761;BME280;19126;47.472;7.850;2023-05-03T15:20:39;96941.31;;;20.42;48.63
32761;BME280;19126;47.472;7.850;2023-05-03T15:23:07;96949.75;;;20.27;48.59
32761;BME280;19126;47.472;7.850;2023-05-03T15:25:35;96943.09;;;20.06;48.45
32761;BME280;19126;47.472;7.850;2023-05-03T15:28:02;96948.50;;;19.99;48.69
32761;BME280;19126;47.472;7.850;2023-05-03T15:30:33;96953.94;;;19.93;50.27
32761;BME280;19126;47.472;7.850;2023-05-03T15:33:00;96953.75;;;19.87;49.69
32761;BME280;19126;47.472;7.850;2023-05-03T15:35:29;96953.72;;;19.75;50.17
32761;BME280;19126;47.472;7.850;2023-05-03T15:37:57;96958.69;;;19.53;49.75
32761;BME280;19126;47.472;7.850;2023-05-03T15:40:27;96960.25;;;19.24;50.18
32761;BME280;19126;47.472;7.850;2023-05-03T15:42:55;96943.09;;;19.20;51.63
32761;BME280;19126;47.472;7.850;2023-05-03T15:45:22;96948.72;;;19.11;52.28
32761;BME280;19126;47.472;7.850;2023-05-03T15:47:51;96954.25;;;19.10;54.15
32761;BME280;19126;47.472;7.850;2023-05-03T15:50:18;96944.91;;;19.00;53.09
32761;BME280;19126;47.472;7.850;2023-05-03T15:52:46;96962.03;;;18.86;52.56
32761;BME280;19126;47.472;7.850;2023-05-03T15:55:13;96941.41;;;18.81;50.80
32761;BME280;19126;47.472;7.850;2023-05-03T15:57:43;96936.63;;;18.65;52.45
32761;BME280;19126;47.472;7.850;2023-05-03T16:00:13;96951.16;;;18.62;52.96
32761;BME280;19126;47.472;7.850;2023-05-03T16:02:41;96950.63;;;18.53;50.80
32761;BME280;19126;47.472;7.850;2023-05-03T16:05:09;96939.81;;;18.48;51.16
32761;BME280;19126;47.472;7.850;2023-05-03T16:07:37;96944.38;;;18.41;53.19
32761;BME280;19126;47.472;7.850;2023-05-03T16:10:06;96945.03;;;18.36;54.91
32761;BME280;19126;47.472;7.850;2023-05-03T16:12:34;96945.13;;;18.23;53.20
32761;BME280;19126;47.472;7.850;2023-05-03T16:15:03;96941.28;;;18.19;54.91
32761;BME280;19126;47.472;7.850;2023-05-03T16:17:31;96937.84;;;18.11;56.89
32761;BME280;19126;47.472;7.850;2023-05-03T16:19:59;96945.41;;;18.08;56.50
32761;BME280;19126;47.472;7.850;2023-05-03T16:22:26;96932.34;;;18.06;56.48
32761;BME280;19126;47.472;7.850;2023-05-03T16:24:54;96927.03;;;17.99;56.61
32761;BME280;19126;47.472;7.850;2023-05-03T16:27:21;96935.25;;;17.91;55.11
32761;BME280;19126;47.472;7.850;2023-05-03T16:29:48;96942.03;;;17.87;54.99
32761;BME280;19126;47.472;7.850;2023-05-03T16:32:18;96947.41;;;17.80;56.85
32761;BME280;19126;47.472;7.850;2023-05-03T16:34:45;96941.84;;;17.82;55.75
32761;BME280;19126;47.472;7.850;2023-05-03T16:37:13;96935.41;;;17.64;56.50
32761;BME280;19126;47.472;7.850;2023-05-03T16:39:40;96936.66;;;17.55;56.40
32761;BME280;19126;47.472;7.850;2023-05-03T16:42:07;96934.25;;;17.47;59.02
32761;BME280;19126;47.472;7.850;2023-05-03T16:44:35;96933.69;;;17.38;59.85
32761;BME280;19126;47.472;7.850;2023-05-03T16:47:03;96940.25;;;17.28;59.86
32761;BME280;19126;47.472;7.850;2023-05-03T16:49:33;96931.28;;;17.16;61.15
32761;BME280;19126;47.472;7.850;2023-05-03T16:52:01;96933.16;;;17.02;60.53
32761;BME280;19126;47.472;7.850;2023-05-03T16:54:29;96935.41;;;16.92;60.99
32761;BME280;19126;47.472;7.850;2023-05-03T16:56:56;96929.88;;;16.80;60.63
32761;BME280;19126;47.472;7.850;2023-05-03T16:59:23;96933.97;;;16.76;59.83
32761;BME280;19126;47.472;7.850;2023-05-03T17:01:52;96925.22;;;16.62;60.17
32761;BME280;19126;47.472;7.850;2023-05-03T17:04:20;96911.34;;;16.53;61.46
32761;BME280;19126;47.472;7.850;2023-05-03T17:06:48;96917.06;;;16.50;62.32
32761;BME280;19126;47.472;7.850;2023-05-03T17:09:16;96917.28;;;16.41;63.02
32761;BME280;19126;47.472;7.850;2023-05-03T17:11:43;96922.38;;;16.30;62.88
32761;BME280;19126;47.472;7.850;2023-05-03T17:14:11;96914.41;;;16.23;62.88
32761;BME280;19126;47.472;7.850;2023-05-03T17:16:38;96923.16;;;16.17;63.47
32761;BME280;19126;47.472;7.850;2023-05-03T17:19:06;96929.50;;;16.09;63.19
32761;BME280;19126;47.472;7.850;2023-05-03T17:26:46;96925.97;;;15.88;63.15
32761;BME280;19126;47.472;7.850;2023-05-03T17:29:15;96931.84;;;15.83;61.15
32761;BME280;19126;47.472;7.850;2023-05-03T17:31:43;96936.09;;;15.78;61.18
32761;BME280;19126;47.472;7.850;2023-05-03T17:34:11;96944.44;;;15.75;62.85
32761;BME280;19126;47.472;7.850;2023-05-03T17:36:38;96938.94;;;15.70;63.20
32761;BME280;19126;47.472;7.850;2023-05-03T17:55:36;96952.59;;;15.24;67.52
32761;BME280;19126;47.472;7.850;2023-05-03T17:58:04;96954.81;;;15.21;68.92
32761;BME280;19126;47.472;7.850;2023-05-03T18:00:32;96951.16;;;15.22;67.99
32761;BME280;19126;47.472;7.850;2023-05-03T18:03:00;96957.44;;;15.14;70.70
32761;BME280;19126;47.472;7.850;2023-05-03T18:08:03;96949.41;;;15.01;70.00
32761;BME280;19126;47.472;7.850;2023-05-03T18:10:31;96947.72;;;14.93;72.29
32761;BME280;19126;47.472;7.850;2023-05-03T18:12:59;96952.16;;;14.86;72.91
32761;BME280;19126;47.472;7.850;2023-05-03T18:15:29;96952.31;;;14.77;73.31
32761;BME280;19126;47.472;7.850;2023-05-03T18:17:56;96954.91;;;14.71;73.08
32761;BME280;19126;47.472;7.850;2023-05-03T18:20:23;96950.53;;;14.63;74.12
32761;BME280;19126;47.472;7.850;2023-05-03T18:22:51;96957.59;;;14.56;75.43
32761;BME280;19126;47.472;7.850;2023-05-03T18:25:18;96957.91;;;14.46;76.01
32761;BME280;19126;47.472;7.850;2023-05-03T18:27:46;96965.19;;;14.37;76.27
32761;BME280;19126;47.472;7.850;2023-05-03T18:30:15;96966.31;;;14.28;77.14
32761;BME280;19126;47.472;7.850;2023-05-03T18:32:42;96964.81;;;14.18;78.61
32761;BME280;19126;47.472;7.850;2023-05-03T18:35:31;96967.00;;;14.15;77.63
32761;BME280;19126;47.472;7.850;2023-05-03T18:38:01;96971.13;;;14.02;78.93
32761;BME280;19126;47.472;7.850;2023-05-03T18:40:29;96968.97;;;13.91;80.89
32761;BME280;19126;47.472;7.850;2023-05-03T18:42:56;96978.22;;;13.80;82.40
32761;BME280;19126;47.472;7.850;2023-05-03T18:45:25;96976.50;;;13.72;83.15
32761;BME280;19126;47.472;7.850;2023-05-03T18:47:58;96973.69;;;13.59;83.53
32761;BME280;19126;47.472;7.850;2023-05-03T18:50:26;96980.09;;;13.50;84.96
32761;BME280;19126;47.472;7.850;2023-05-03T18:53:08;96979.09;;;13.36;86.14
32761;BME280;19126;47.472;7.850;2023-05-03T18:55:36;96990.16;;;13.31;88.41
32761;BME280;19126;47.472;7.850;2023-05-03T18:58:03;96975.25;;;13.08;89.13
32761;BME280;19126;47.472;7.850;2023-05-03T19:00:32;96989.69;;;12.97;90.98
32761;BME280;19126;47.472;7.850;2023-05-03T19:03:00;96988.19;;;12.80;91.25
32761;BME280;19126;47.472;7.850;2023-05-03T19:05:27;96990.00;;;12.64;92.36
32761;BME280;19126;47.472;7.850;2023-05-03T19:07:55;96984.34;;;12.52;92.73
32761;BME280;19126;47.472;7.850;2023-05-03T19:10:23;96977.66;;;12.41;94.23
32761;BME280;19126;47.472;7.850;2023-05-03T19:12:51;96984.69;;;12.26;95.09
32761;BME280;19126;47.472;7.850;2023-05-03T19:15:19;96987.56;;;12.16;96.76
32761;BME280;19126;47.472;7.850;2023-05-03T19:17:47;96989.28;;;12.09;97.57
32761;BME280;19126;47.472;7.850;2023-05-03T19:20:15;96984.22;;;11.91;97.77
32761;BME280;19126;47.472;7.850;2023-05-03T19:22:43;96978.81;;;11.84;99.61
32761;BME280;19126;47.472;7.850;2023-05-03T19:25:11;96988.59;;;11.75;100.00